Latest Coastal Weather Observations for Hobart

IDT60701

Issued at 8:12 am EST Friday 30 September 2016 (issued every 10 minutes, with the page automatically refreshed every 10 minutes)

About coastal observations | Map of coastal stations | Coastal observations for TAS | Marine services | Other Formats
Station Details ID: 094029 Name: HOBART (ELLERSLIE ROAD) Lat: -42.89 Lon: 147.33 Height: 50.5 m
Data from the previous 72 hours. | See also: Recent months at Hobart
Date/Time
EST
Temp
°C
Wind Pressure Rain since
9am
mm
Weather Cloud Vis
km
Sea
Height
m
Swell
Dir  Spd
kts
Gust
kts
hPa Trend Height
m
Period
s
Dir
30/08:00am 11.7 S 16 26 989.8 - 31.4 - - - - - - -
30/07:54am 11.7 SSW 16 26 990.0 - 30.6 - - - - - - -
30/07:30am 11.8 S 12 19 990.7 - 27.8 - - - - - - -
30/07:00am 12.3 ESE 17 25 991.7 - 26.0 - - - - - - -
30/06:30am 12.3 SE 18 25 991.5 - 25.0 - - - - - - -
30/06:00am 12.5 SE 16 24 991.6 - 23.8 Rain - - - - - -
30/05:30am 12.0 SE 10 15 991.8 - 22.8 - - - - - - -
30/05:00am 12.0 ESE 11 16 991.8 - 21.4 - - - - - - -
30/04:30am 12.8 E 19 30 991.7 - 20.8 - - - - - - -
30/04:16am 12.9 ESE 17 27 991.4 - 20.8 - - - - - - -
30/04:00am 12.8 ESE 17 25 991.4 - 20.6 - - - - - - -
30/03:30am 12.6 E 19 27 991.8 - 20.0 - - - - - - -
30/03:06am 12.6 E 15 26 992.2 - 18.8 - - - - - - -
30/03:00am 12.8 E 14 22 992.1 - 18.4 Recent precip. - - - - - -
30/02:30am 12.2 E 8 11 992.3 - 14.4 - - - - - - -
30/02:00am 12.5 E 10 15 992.7 - 10.6 - - - - - - -
30/01:30am 12.3 E 7 11 993.1 - 9.0 - - - - - - -
30/01:00am 11.9 ESE 3 5 993.5 - 7.6 - - - - - - -
30/12:30am 11.4 WSW 7 9 993.6 - 5.8 - - - - - - -
30/12:00am 11.6 NNE 6 9 993.8 - 5.2 Rain - - - - - -
 
Date/Time
EST
Temp
°C
Wind Pressure Rain since
9am
mm
Weather Cloud Vis
km
Sea
Height
m
Swell
Dir  Spd
kts
Gust
kts
hPa Trend Height
m
Period
s
Dir
29/11:30pm 12.3 N 4 7 994.0 - 2.8 - - - - - - -
29/11:00pm 12.9 E 10 16 994.0 - 0.8 - - - - - - -
29/10:30pm 13.2 E 14 21 993.9 - 0.4 - - - - - - -
29/10:00pm 13.1 E 13 19 994.3 - 0.4 - - - - - - -
29/09:30pm 13.0 E 16 23 994.4 - 0.4 - - - - - - -
29/09:00pm 13.0 E 15 21 994.6 - 0.4 - - - - - - -
29/08:30pm 13.0 E 13 20 994.7 - 0.4 - - - - - - -
29/08:00pm 12.9 E 13 19 994.8 - 0.4 - - - - - - -
29/07:30pm 12.8 E 12 21 994.6 - 0.4 - - - - - - -
29/07:00pm 12.9 E 11 17 994.6 - 0.4 - - - - - - -
29/06:30pm 13.4 E 9 21 994.8 - 0.2 - - - - - - -
29/06:00pm 13.4 ENE 9 16 995.1 - 0.2 - - - - - - -
29/05:30pm 13.9 ENE 12 18 994.6 - 0.2 - - - - - - -
29/05:00pm 14.0 ENE 13 19 994.6 - 0.2 - - - - - - -
29/04:30pm 13.9 ENE 15 24 994.3 - 0.2 - - - - - - -
29/04:00pm 13.9 ENE 13 18 994.0 - 0.2 - - - - - - -
29/03:37pm 13.7 ENE 17 27 994.1 - 0.2 - - - - - - -
29/03:30pm 13.8 NE 19 26 994.1 - 0.0 - - - - - - -
29/03:08pm 14.2 ENE 15 27 994.1 - 0.0 - - - - - - -
29/03:00pm 14.2 ENE 15 22 994.1 - 0.0 - - - - - - -
29/02:30pm 14.0 NE 16 25 994.5 - 0.0 - - - - - - -
29/02:26pm 13.9 NE 15 25 994.5 - 0.0 - - - - - - -
29/02:00pm 14.0 NE 17 26 994.6 - 0.0 - - - - - - -
29/01:32pm 14.3 ENE 19 29 994.8 - 0.0 - - - - - - -
29/01:30pm 14.3 NE 20 29 994.8 - 0.0 - - - - - - -
29/01:02pm 14.4 ENE 17 27 994.9 - 0.0 - - - - - - -
29/01:00pm 14.4 ENE 16 25 994.9 - 0.0 - - - - - - -
29/12:30pm 14.8 ENE 17 24 995.3 - 0.0 - - - - - - -
29/12:15pm 15.0 NE 15 25 995.4 - 0.0 - - - - - - -
29/12:00pm 15.0 NE 16 23 995.7 - 0.0 - - - - - - -
29/11:50am 15.2 NE 15 25 995.8 - 0.0 - - - - - - -
29/11:30am 14.9 NE 12 20 996.0 - 0.0 - - - - - - -
29/11:00am 14.3 NE 9 14 996.3 - 0.0 - - - - - - -
29/10:30am 14.7 NE 9 15 996.7 - 0.0 - - - - - - -
29/10:00am 14.3 NE 7 11 997.2 - 0.0 - - - - - - -
29/09:30am 14.0 NE 7 11 997.3 - 0.0 - - - - - - -
29/09:00am 13.7 NNE 6 9 997.8 - 0.4 Recent precip. - - - - - -
29/08:30am 13.4 WNW 5 7 998.0 - 0.0 - - - - - - -
29/08:00am 12.5 W 1 4 998.2 - 0.0 - - - - - - -
29/07:30am 12.0 WSW 3 5 998.5 - 0.0 - - - - - - -
29/07:00am 11.7 SW 1 5 998.7 - 0.0 - - - - - - -
29/06:30am 11.4 W 3 5 999.1 - 0.0 - - - - - - -
29/06:00am 11.2 W 5 6 999.3 - 0.0 - - - - - - -
29/05:30am 10.6 W 3 5 999.6 - 0.0 - - - - - - -
29/05:00am 10.3 W 4 6 999.9 - 0.0 - - - - - - -
29/04:30am 9.7 NNW 2 4 1000.4 - 0.0 - - - - - - -
29/04:00am 9.2 WSW 3 4 1000.8 - 0.0 - - - - - - -
29/03:30am 8.9 CALM 0 0 1001.2 - 0.0 - - - - - - -
29/03:00am 8.2 CALM 0 0 1001.5 - 0.0 - - - - - - -
29/02:30am 8.6 CALM 0 0 1002.0 - 0.0 - - - - - - -
29/02:00am 9.0 N 3 4 1002.8 - 0.0 - - - - - - -
29/01:30am 9.8 NNW 4 5 1003.2 - 0.0 - - - - - - -
29/01:00am 10.3 NNW 7 9 1003.5 - 0.0 - - - - - - -
29/12:30am 10.3 NNW 4 7 1003.6 - 0.0 - - - - - - -
29/12:00am 10.9 NNW 6 9 1003.7 - 0.0 - - - - - - -
 
Date/Time
EST
Temp
°C
Wind Pressure Rain since
9am
mm
Weather Cloud Vis
km
Sea
Height
m
Swell
Dir  Spd
kts
Gust
kts
hPa Trend Height
m
Period
s
Dir
28/11:30pm 10.6 NNE 4 5 1003.8 - 0.0 - - - - - - -
28/11:00pm 11.3 NW 1 4 1004.3 - 0.0 - - - - - - -
28/10:30pm 11.5 NNW 4 5 1004.6 - 0.0 - - - - - - -
28/10:00pm 11.9 NW 4 5 1004.7 - 0.0 - - - - - - -
28/09:30pm 12.3 NNW 2 6 1005.1 - 0.0 - - - - - - -
28/09:00pm 12.5 N 4 8 1005.6 - 0.0 - - - - - - -
28/08:30pm 12.6 NNE 7 10 1005.9 - 0.0 - - - - - - -
28/08:00pm 12.7 NE 7 9 1006.0 - 0.0 - - - - - - -
28/07:30pm 12.6 ENE 4 5 1006.1 - 0.0 - - - - - - -
28/07:00pm 12.7 NE 6 10 1005.9 - 0.0 - - - - - - -
28/06:30pm 12.9 NE 10 15 1005.8 - 0.0 - - - - - - -
28/06:00pm 13.1 ENE 8 11 1005.8 - 0.0 - - - - - - -
28/05:30pm 13.3 ENE 10 16 1005.5 - 0.0 - - - - - - -
28/05:00pm 13.7 ENE 8 13 1005.2 - 0.0 - - - - - - -
28/04:30pm 13.3 ESE 12 16 1005.2 - 0.0 - - - - - - -
28/04:00pm 13.5 ESE 11 16 1005.6 - 0.0 - - - - - - -
28/03:30pm 14.1 ESE 10 15 1005.8 - 0.0 - - - - - - -
28/03:00pm 14.8 ESE 13 17 1006.2 - 0.0 - - - - - - -
28/02:30pm 14.9 ESE 10 14 1006.5 - 0.0 - - - - - - -
28/02:00pm 15.0 ESE 11 16 1006.8 - 0.0 - - - - - - -
28/01:30pm 15.0 ESE 9 11 1007.2 - 0.0 - - - - - - -
28/01:00pm 14.9 ESE 9 12 1007.5 - 0.0 - - - - - - -
28/12:30pm 15.0 SE 10 12 1008.0 - 0.0 - - - - - - -
28/12:00pm 14.3 ESE 8 12 1008.4 - 0.0 - - - - - - -
28/11:30am 14.3 ESE 8 11 1008.6 - 0.0 - - - - - - -
28/11:00am 15.2 NE 8 11 1008.9 - 0.0 - - - - - - -
28/10:30am 14.9 NNE 7 9 1009.2 - 0.0 - - - - - - -
28/10:00am 14.7 NW 6 10 1009.5 - 0.0 - - - - - - -
28/09:30am 14.2 NNW 9 14 1009.5 - 0.0 - - - - - - -
28/09:00am 13.8 NNW 10 14 1009.8 - 0.2 - - - - - - -
28/08:30am 13.1 NNW 9 14 1009.8 - 0.2 - - - - - - -
28/08:00am 12.0 N 6 9 1009.9 - 0.2 - - - - - - -
28/07:30am 11.6 ESE 4 9 1010.1 - 0.2 - - - - - - -
28/07:00am 9.9 WSW 6 8 1009.7 - 0.2 - - - - - - -
28/06:30am 8.8 W 6 8 1009.4 - 0.2 - - - - - - -
28/06:00am 8.1 NW 8 11 1009.3 - 0.2 - - - - - - -
28/05:30am 8.0 WSW 4 8 1008.9 - 0.2 - - - - - - -
28/05:00am 7.9 WNW 2 6 1008.6 - 0.2 - - - - - - -
28/04:30am 8.1 NNW 3 7 1008.5 - 0.2 - - - - - - -
28/04:00am 8.9 NNW 4 5 1008.4 - 0.2 - - - - - - -
28/03:30am 9.7 NW 5 9 1008.0 - 0.2 - - - - - - -
28/03:00am 10.6 N 9 13 1007.7 - 0.2 - - - - - - -
28/02:30am 10.8 NNW 12 16 1007.6 - 0.2 - - - - - - -
28/02:00am 10.7 NW 8 11 1007.4 - 0.2 - - - - - - -
28/01:30am 10.5 NW 7 11 1007.5 - 0.2 - - - - - - -
28/01:00am 10.2 NNW 6 12 1007.3 - 0.2 - - - - - - -
28/12:30am 10.4 N 8 10 1007.4 - 0.2 - - - - - - -
28/12:00am 10.2 NNW 7 10 1007.5 - 0.2 - - - - - - -
 
Date/Time
EST
Temp
°C
Wind Pressure Rain since
9am
mm
Weather Cloud Vis
km
Sea
Height
m
Swell
Dir  Spd
kts
Gust
kts
hPa Trend Height
m
Period
s
Dir
27/11:30pm 9.5 NW 4 5 1007.5 - 0.2 - - - - - - -
27/11:00pm 10.2 WNW 4 6 1007.7 - 0.2 - - - - - - -
27/10:30pm 10.4 W 4 5 1007.6 - 0.2 - - - - - - -
27/10:00pm 11.0 CALM 0 3 1007.5 - 0.2 - - - - - - -
27/09:30pm 11.4 SSE 3 6 1007.8 - 0.2 - - - - - - -
27/09:00pm 11.4 SW 5 9 1007.7 - 0.2 - - - - - - -
27/08:30pm 11.3 S 5 9 1007.7 - 0.2 - - - - - - -
27/08:00pm 12.1 SSW 10 15 1007.4 - 0.2 - - - - - - -
27/07:30pm 12.4 SSW 8 11 1007.4 - 0.2 - - - - - - -
27/07:00pm 12.7 SW 7 11 1007.2 - 0.2 - - - - - - -
27/06:30pm 12.6 SSW 5 9 1007.0 - 0.2 - - - - - - -
27/06:00pm 13.3 S 6 9 1006.8 - 0.2 - - - - - - -
27/05:30pm 13.8 SE 8 11 1006.6 - 0.2 - - - - - - -
27/05:00pm 14.2 SE 9 12 1006.3 - 0.2 - - - - - - -
27/04:30pm 14.5 SE 9 12 1006.2 - 0.2 - - - - - - -
27/04:00pm 15.1 ESE 9 13 1006.0 - 0.2 - - - - - - -
27/03:30pm 15.2 ESE 10 13 1006.0 - 0.2 - - - - - - -
27/03:00pm 15.3 ESE 10 13 1006.1 - 0.2 - - - - - - -
27/02:30pm 15.6 ESE 9 13 1006.0 - 0.2 - - - - - - -
27/02:00pm 16.3 NE 7 11 1006.2 - 0.2 - - - - - - -
27/01:30pm 16.8 NNE 9 12 1006.4 - 0.2 - - - - - - -
27/01:00pm 16.3 NE 9 12 1006.7 - 0.2 - - - - - - -
27/12:30pm 15.7 NE 10 14 1006.9 - 0.2 - - - - - - -
27/12:00pm 15.6 NNE 7 10 1007.3 - 0.2 Recent precip. - - - - - -
27/11:30am 15.0 NNW 7 12 1007.6 - 0.2 - - - - - - -
27/11:00am 13.9 N 9 12 1007.8 - 0.0 - - - - - - -
27/10:30am 13.5 NNW 11 15 1008.0 - 0.0 - - - - - - -
27/10:00am 12.4 NNW 10 14 1008.0 - 0.0 - - - - - - -
27/09:30am 10.4 NNW 10 15 1008.2 - 0.0 - - - - - - -
27/09:00am 10.5 NNW 11 15 1008.2 - 1.0 - - - - - - -
27/08:30am 9.5 NNW 10 13 1008.1 - 1.0 - - - - - - -

Other Formats:

Comma delimited format used in spreadsheet applications
http://www.bom.gov.au/fwo/IDT60701/IDT60701.94970.axf

JavaScript Object Notation format (JSON) in row-major order
http://www.bom.gov.au/fwo/IDT60701/IDT60701.94970.json